createdAt,value
2022-12-17T00:00:05.903Z,90.10
2022-12-17T00:00:15.915Z,90.10
2022-12-17T00:00:27.951Z,90.10
2022-12-17T00:00:35.904Z,90.10
2022-12-17T00:00:45.923Z,90.20
2022-12-17T00:00:55.918Z,90.20
2022-12-17T00:01:05.939Z,90.20
2022-12-17T00:01:15.864Z,90.31
2022-12-17T00:01:25.865Z,90.31
2022-12-17T00:01:35.880Z,90.31
2022-12-17T00:01:45.869Z,90.31
2022-12-17T00:01:55.869Z,90.42
2022-12-17T00:02:05.869Z,90.42
2022-12-17T00:02:15.867Z,90.42
2022-12-17T00:02:25.936Z,90.42
2022-12-17T00:02:35.984Z,90.31
2022-12-17T00:02:46.041Z,90.20
2022-12-17T00:02:55.974Z,90.20
2022-12-17T00:03:05.977Z,90.10
2022-12-17T00:03:15.942Z,90.10
2022-12-17T00:03:26.068Z,90.10
2022-12-17T00:03:36.396Z,90.10
2022-12-17T00:03:46.084Z,89.99
2022-12-17T00:03:56.768Z,89.99
2022-12-17T00:04:05.968Z,89.89
2022-12-17T00:04:15.991Z,89.78
2022-12-17T00:04:25.879Z,89.78
2022-12-17T00:04:35.897Z,89.67
2022-12-17T00:04:45.882Z,89.57
2022-12-17T00:04:55.888Z,89.46
2022-12-17T00:05:05.883Z,89.31
2022-12-17T00:05:15.885Z,89.36
2022-12-17T00:05:25.884Z,89.25
2022-12-17T00:05:35.900Z,89.14
2022-12-17T00:05:45.886Z,89.14
2022-12-17T00:05:55.885Z,89.11
2022-12-17T00:06:05.890Z,89.04
2022-12-17T00:06:15.888Z,89.04
2022-12-17T00:06:25.889Z,89.04
2022-12-17T00:06:35.906Z,88.93
2022-12-17T00:06:45.889Z,88.89
2022-12-17T00:06:56.584Z,88.89
2022-12-17T00:07:05.894Z,88.93
2022-12-17T00:07:15.899Z,88.89
2022-12-17T00:07:25.895Z,88.82
2022-12-17T00:07:35.904Z,88.79
2022-12-17T00:07:45.895Z,88.82
2022-12-17T00:07:55.897Z,88.82
2022-12-17T00:08:05.903Z,88.68
2022-12-17T00:08:15.898Z,88.79
2022-12-17T00:08:25.901Z,88.72
2022-12-17T00:08:35.916Z,88.72
2022-12-17T00:08:45.901Z,88.68
2022-12-17T00:08:55.903Z,88.72
2022-12-17T00:09:05.904Z,88.68
2022-12-17T00:09:15.905Z,88.68
2022-12-17T00:09:25.911Z,88.57
2022-12-17T00:09:35.922Z,88.57
2022-12-17T00:09:50.251Z,88.68
2022-12-17T00:09:55.908Z,88.68
2022-12-17T00:10:05.913Z,88.79
2022-12-17T00:10:15.910Z,88.89
2022-12-17T00:10:25.912Z,88.89
2022-12-17T00:10:35.934Z,89.00
2022-12-17T00:10:45.915Z,89.04
2022-12-17T00:10:55.921Z,89.04
2022-12-17T00:11:05.916Z,89.00
2022-12-17T00:11:15.916Z,89.14
2022-12-17T00:11:25.917Z,89.14
2022-12-17T00:11:35.931Z,89.11
2022-12-17T00:11:45.917Z,89.11
2022-12-17T00:11:56.073Z,89.25
2022-12-17T00:12:05.920Z,89.21
2022-12-17T00:12:15.924Z,89.25
2022-12-17T00:12:25.907Z,89.21
2022-12-17T00:12:35.931Z,89.21
2022-12-17T00:12:45.939Z,89.21
2022-12-17T00:12:56.374Z,89.25
2022-12-17T00:13:05.925Z,89.25
2022-12-17T00:13:15.931Z,89.21
2022-12-17T00:13:25.928Z,89.21
2022-12-17T00:13:36.373Z,89.36
2022-12-17T00:13:45.930Z,89.21
2022-12-17T00:13:55.937Z,89.36
2022-12-17T00:14:05.935Z,89.36
2022-12-17T00:14:15.931Z,89.36
2022-12-17T00:14:25.934Z,89.31
2022-12-17T00:14:35.948Z,89.36
2022-12-17T00:14:45.933Z,89.31
2022-12-17T00:14:55.933Z,89.25
2022-12-17T00:15:05.944Z,89.25
2022-12-17T00:15:15.939Z,89.25
2022-12-17T00:15:25.937Z,89.25
2022-12-17T00:15:35.956Z,89.25
2022-12-17T00:15:45.949Z,89.25
2022-12-17T00:15:55.980Z,89.25
2022-12-17T00:16:05.980Z,89.25
2022-12-17T00:16:16.010Z,89.25
2022-12-17T00:16:25.979Z,89.14
2022-12-17T00:16:35.986Z,88.93
2022-12-17T00:16:45.946Z,88.93
2022-12-17T00:16:55.945Z,88.82
2022-12-17T00:17:05.945Z,88.72
2022-12-17T00:17:15.946Z,88.61
2022-12-17T00:17:25.949Z,88.61
2022-12-17T00:17:35.963Z,88.51
2022-12-17T00:17:45.949Z,88.51
2022-12-17T00:17:55.949Z,88.51
2022-12-17T00:18:05.949Z,88.51
2022-12-17T00:18:15.951Z,88.51
2022-12-17T00:18:25.964Z,88.51
2022-12-17T00:18:35.961Z,88.51
2022-12-17T00:18:45.952Z,88.61
2022-12-17T00:18:56.345Z,88.61
2022-12-17T00:19:05.953Z,88.82
2022-12-17T00:19:15.963Z,88.93
2022-12-17T00:19:25.960Z,89.14
2022-12-17T00:19:35.968Z,89.25
2022-12-17T00:19:45.959Z,89.36
2022-12-17T00:19:56.354Z,89.46
2022-12-17T00:20:05.959Z,89.57
2022-12-17T00:20:15.962Z,89.89
2022-12-17T00:20:25.964Z,90.10
2022-12-17T00:20:35.980Z,90.31
2022-12-17T00:20:45.963Z,90.42
2022-12-17T00:20:55.965Z,90.62
2022-12-17T00:21:05.972Z,90.73
2022-12-17T00:21:15.969Z,90.84
2022-12-17T00:21:25.967Z,90.95
2022-12-17T00:21:35.980Z,90.95
2022-12-17T00:21:45.972Z,90.95
2022-12-17T00:21:56.228Z,90.95
2022-12-17T00:22:05.974Z,90.95
2022-12-17T00:22:15.974Z,90.84
2022-12-17T00:22:25.978Z,90.84
2022-12-17T00:22:35.979Z,90.73
2022-12-17T00:22:45.972Z,90.73
2022-12-17T00:22:55.977Z,90.62
2022-12-17T00:23:05.979Z,90.62
2022-12-17T00:23:15.975Z,90.52
2022-12-17T00:23:25.977Z,90.42
2022-12-17T00:23:36.195Z,90.42
2022-12-17T00:23:45.980Z,90.27
2022-12-17T00:23:55.979Z,90.16
2022-12-17T00:24:05.980Z,89.95
2022-12-17T00:24:15.982Z,89.74
2022-12-17T00:24:25.983Z,89.53
2022-12-17T00:24:36.007Z,89.36
2022-12-17T00:24:45.986Z,89.14
2022-12-17T00:24:56.304Z,88.93
2022-12-17T00:25:05.987Z,88.72
2022-12-17T00:25:15.991Z,88.51
2022-12-17T00:25:25.989Z,88.29
2022-12-17T00:25:36.009Z,88.19
2022-12-17T00:25:45.993Z,88.09
2022-12-17T00:25:55.993Z,87.87
2022-12-17T00:26:05.998Z,87.77
2022-12-17T00:26:15.994Z,87.66
2022-12-17T00:26:25.994Z,87.55
2022-12-17T00:26:36.006Z,87.45
2022-12-17T00:26:46.001Z,87.45
2022-12-17T00:26:55.995Z,87.45
2022-12-17T00:27:05.998Z,87.45
2022-12-17T00:27:15.998Z,87.45
2022-12-17T00:27:25.999Z,87.45
2022-12-17T00:27:36.011Z,87.45
2022-12-17T00:27:46.001Z,87.45
2022-12-17T00:27:56.000Z,87.55
2022-12-17T00:28:06.027Z,87.55
2022-12-17T00:28:16.003Z,87.70
2022-12-17T00:28:26.010Z,87.77
2022-12-17T00:28:36.021Z,87.81
2022-12-17T00:28:46.006Z,87.91
2022-12-17T00:28:56.042Z,87.91
2022-12-17T00:29:06.007Z,87.91
2022-12-17T00:29:16.007Z,88.02
2022-12-17T00:29:26.010Z,88.02
2022-12-17T00:29:36.026Z,88.12
2022-12-17T00:29:46.013Z,88.12
2022-12-17T00:29:56.015Z,88.23
2022-12-17T00:30:06.017Z,88.34
2022-12-17T00:30:16.018Z,88.44
2022-12-17T00:30:26.023Z,88.44
2022-12-17T00:30:36.023Z,88.44
2022-12-17T00:30:46.021Z,88.34
2022-12-17T00:30:56.021Z,88.23
2022-12-17T00:31:06.066Z,88.23
2022-12-17T00:31:16.057Z,88.23
2022-12-17T00:31:26.088Z,88.12
2022-12-17T00:31:36.092Z,88.12
2022-12-17T00:31:46.097Z,88.02
2022-12-17T00:31:56.315Z,88.02
2022-12-17T00:32:06.032Z,87.91
2022-12-17T00:32:16.030Z,87.81
2022-12-17T00:32:26.029Z,87.81
2022-12-17T00:32:36.057Z,87.70
2022-12-17T00:32:46.032Z,87.70
2022-12-17T00:32:56.032Z,87.59
2022-12-17T00:33:06.032Z,87.59
2022-12-17T00:33:16.033Z,87.49
2022-12-17T00:33:26.036Z,87.49
2022-12-17T00:33:36.399Z,87.63
2022-12-17T00:33:46.040Z,87.63
2022-12-17T00:33:56.039Z,87.63
2022-12-17T00:34:06.042Z,87.74
2022-12-17T00:34:16.040Z,87.74
2022-12-17T00:34:26.043Z,87.84
2022-12-17T00:34:36.076Z,87.84
2022-12-17T00:34:46.044Z,87.84
2022-12-17T00:34:56.049Z,87.84
2022-12-17T00:35:06.048Z,87.84
2022-12-17T00:35:16.055Z,87.84
2022-12-17T00:35:26.051Z,87.84
2022-12-17T00:35:36.060Z,87.74
2022-12-17T00:35:46.050Z,87.63
2022-12-17T00:35:56.049Z,87.52
2022-12-17T00:36:06.075Z,87.32
2022-12-17T00:36:16.052Z,87.21
2022-12-17T00:36:26.057Z,87.14
2022-12-17T00:36:36.061Z,87.14
2022-12-17T00:36:46.053Z,87.04
2022-12-17T00:36:56.059Z,87.14
2022-12-17T00:37:06.058Z,87.14
2022-12-17T00:37:16.058Z,87.35
2022-12-17T00:37:26.059Z,87.46
2022-12-17T00:37:36.075Z,87.82
2022-12-17T00:37:46.060Z,88.03
2022-12-17T00:37:56.062Z,88.35
2022-12-17T00:38:06.615Z,88.67
2022-12-17T00:38:16.062Z,89.09
2022-12-17T00:38:26.063Z,89.41
2022-12-17T00:38:36.628Z,89.73
2022-12-17T00:38:46.067Z,89.94
2022-12-17T00:38:56.072Z,90.26
2022-12-17T00:39:06.615Z,90.58
2022-12-17T00:39:16.071Z,90.79
2022-12-17T00:39:26.068Z,90.90
2022-12-17T00:39:36.625Z,91.22
2022-12-17T00:39:46.071Z,91.32
2022-12-17T00:39:59.234Z,91.53
2022-12-17T00:40:06.617Z,91.75
2022-12-17T00:40:16.079Z,91.85
2022-12-17T00:40:26.076Z,91.96
2022-12-17T00:40:36.626Z,92.07
2022-12-17T00:40:46.082Z,92.07
2022-12-17T00:40:56.079Z,92.17
2022-12-17T00:41:06.109Z,92.17
2022-12-17T00:41:16.081Z,92.28
2022-12-17T00:41:26.083Z,92.28
2022-12-17T00:41:36.099Z,92.28
2022-12-17T00:41:46.084Z,92.28
2022-12-17T00:41:56.088Z,92.28
2022-12-17T00:42:06.084Z,92.28
2022-12-17T00:42:16.084Z,92.28
2022-12-17T00:42:26.088Z,92.17
2022-12-17T00:42:36.083Z,92.17
2022-12-17T00:42:46.107Z,92.02
2022-12-17T00:42:56.299Z,92.07
2022-12-17T00:43:06.087Z,91.92
2022-12-17T00:43:16.086Z,91.92
2022-12-17T00:43:26.088Z,91.81
2022-12-17T00:43:36.407Z,91.81
2022-12-17T00:43:46.101Z,91.71
2022-12-17T00:43:56.094Z,91.60
2022-12-17T00:44:06.095Z,91.60
2022-12-17T00:44:16.092Z,91.49
2022-12-17T00:44:26.094Z,91.49
2022-12-17T00:44:36.093Z,91.43
2022-12-17T00:44:46.102Z,91.39
2022-12-17T00:44:56.103Z,91.39
2022-12-17T00:45:06.099Z,91.28
2022-12-17T00:45:16.096Z,91.28
2022-12-17T00:45:26.099Z,91.28
2022-12-17T00:45:36.103Z,91.17
2022-12-17T00:45:46.108Z,91.17
2022-12-17T00:45:56.109Z,91.17
2022-12-17T00:46:06.104Z,91.07
2022-12-17T00:46:16.160Z,90.96
2022-12-17T00:46:26.153Z,90.96
2022-12-17T00:46:36.199Z,90.86
2022-12-17T00:46:46.188Z,90.75
2022-12-17T00:46:56.169Z,90.75
2022-12-17T00:47:06.189Z,90.64
2022-12-17T00:47:16.111Z,90.69
2022-12-17T00:47:26.117Z,90.64
2022-12-17T00:47:36.115Z,90.54
2022-12-17T00:47:46.123Z,90.54
2022-12-17T00:47:56.116Z,90.54
2022-12-17T00:48:06.117Z,90.54
2022-12-17T00:48:16.118Z,90.54
2022-12-17T00:48:26.117Z,90.54
2022-12-17T00:48:36.483Z,90.64
2022-12-17T00:48:46.131Z,90.64
2022-12-17T00:48:56.125Z,90.75
2022-12-17T00:49:06.127Z,90.86
2022-12-17T00:49:16.131Z,90.96
2022-12-17T00:49:26.125Z,90.96
2022-12-17T00:49:36.133Z,90.96
2022-12-17T00:49:46.139Z,90.86
2022-12-17T00:49:56.268Z,90.86
2022-12-17T00:50:06.128Z,90.75
2022-12-17T00:50:16.130Z,90.64
2022-12-17T00:50:26.132Z,90.54
2022-12-17T00:50:36.134Z,90.54
2022-12-17T00:50:46.143Z,90.43
2022-12-17T00:50:56.135Z,90.33
2022-12-17T00:51:06.138Z,90.22
2022-12-17T00:51:16.140Z,90.11
2022-12-17T00:51:26.138Z,90.01
2022-12-17T00:51:36.138Z,89.90
2022-12-17T00:51:46.156Z,89.79
2022-12-17T00:51:56.141Z,89.69
2022-12-17T00:52:06.146Z,89.58
2022-12-17T00:52:16.143Z,89.48
2022-12-17T00:52:26.143Z,89.26
2022-12-17T00:52:36.147Z,89.26
2022-12-17T00:52:46.154Z,89.16
2022-12-17T00:52:56.448Z,89.05
2022-12-17T00:53:06.148Z,88.95
2022-12-17T00:53:16.152Z,88.95
2022-12-17T00:53:26.151Z,88.84
2022-12-17T00:53:36.450Z,88.73
2022-12-17T00:53:46.150Z,88.73
2022-12-17T00:53:56.176Z,88.63
2022-12-17T00:54:06.156Z,88.63
2022-12-17T00:54:16.151Z,88.63
2022-12-17T00:54:26.154Z,88.63
2022-12-17T00:54:36.156Z,88.63
2022-12-17T00:54:46.160Z,88.63
2022-12-17T00:54:56.177Z,88.63
2022-12-17T00:55:06.158Z,88.73
2022-12-17T00:55:16.160Z,88.84
2022-12-17T00:55:26.171Z,88.95
2022-12-17T00:55:36.176Z,89.05
2022-12-17T00:55:46.166Z,89.16
2022-12-17T00:55:56.179Z,89.26
2022-12-17T00:56:06.162Z,89.26
2022-12-17T00:56:16.171Z,89.37
2022-12-17T00:56:26.168Z,89.26
2022-12-17T00:56:36.164Z,89.26
2022-12-17T00:56:46.159Z,89.26
2022-12-17T00:56:56.340Z,89.37
2022-12-17T00:57:06.169Z,89.37
2022-12-17T00:57:16.170Z,89.48
2022-12-17T00:57:26.172Z,89.58
2022-12-17T00:57:36.170Z,89.58
2022-12-17T00:57:46.169Z,89.69
2022-12-17T00:57:56.258Z,89.69
2022-12-17T00:58:06.170Z,89.79
2022-12-17T00:58:16.173Z,89.79
2022-12-17T00:58:26.176Z,89.79
2022-12-17T00:58:36.182Z,89.79
2022-12-17T00:58:46.180Z,89.79
2022-12-17T00:58:56.192Z,89.79
2022-12-17T00:59:06.164Z,89.79
2022-12-17T00:59:16.179Z,89.79
2022-12-17T00:59:26.180Z,89.79
2022-12-17T00:59:36.179Z,89.69
2022-12-17T00:59:46.189Z,89.58
2022-12-17T00:59:56.225Z,89.58
2022-12-17T01:00:06.184Z,89.48
2022-12-17T01:00:16.206Z,89.26
2022-12-17T01:00:26.188Z,89.16
2022-12-17T01:00:36.241Z,89.05
2022-12-17T01:00:46.238Z,88.95
2022-12-17T01:00:56.289Z,88.84
2022-12-17T01:01:06.249Z,88.73
2022-12-17T01:01:16.359Z,88.63
2022-12-17T01:01:26.307Z,88.52
2022-12-17T01:01:36.442Z,88.52
2022-12-17T01:01:46.338Z,88.42
2022-12-17T01:01:56.317Z,88.31
2022-12-17T01:02:06.326Z,88.31
2022-12-17T01:02:16.298Z,88.20
2022-12-17T01:02:26.323Z,88.10
2022-12-17T01:02:36.372Z,88.13
2022-12-17T01:02:46.319Z,88.13
2022-12-17T01:02:56.328Z,88.13
2022-12-17T01:03:06.295Z,88.13
2022-12-17T01:03:16.268Z,88.13
2022-12-17T01:03:26.208Z,88.13
2022-12-17T01:03:36.502Z,88.13
2022-12-17T01:03:46.203Z,88.24
2022-12-17T01:03:56.220Z,88.35
2022-12-17T01:04:06.204Z,88.35
2022-12-17T01:04:16.207Z,88.45
2022-12-17T01:04:26.224Z,88.45
2022-12-17T01:04:36.209Z,88.45
2022-12-17T01:04:46.216Z,88.45
2022-12-17T01:04:56.221Z,88.45
2022-12-17T01:05:06.210Z,88.45
2022-12-17T01:05:16.209Z,88.45
2022-12-17T01:05:26.212Z,88.45
2022-12-17T01:05:36.210Z,88.45
2022-12-17T01:05:46.215Z,88.35
2022-12-17T01:05:56.225Z,88.35
2022-12-17T01:06:06.214Z,88.24
2022-12-17T01:06:16.220Z,88.03
2022-12-17T01:06:26.216Z,87.92
2022-12-17T01:06:36.230Z,87.82
2022-12-17T01:06:46.224Z,87.71
2022-12-17T01:06:56.228Z,87.71
2022-12-17T01:07:06.217Z,87.82
2022-12-17T01:07:16.221Z,87.92
2022-12-17T01:07:26.219Z,88.03
2022-12-17T01:07:36.221Z,88.13
2022-12-17T01:07:46.222Z,88.24
2022-12-17T01:07:56.366Z,88.24
2022-12-17T01:08:06.222Z,88.13
2022-12-17T01:08:16.226Z,88.13
2022-12-17T01:08:26.225Z,88.13
2022-12-17T01:08:36.221Z,88.03
2022-12-17T01:08:46.225Z,87.92
2022-12-17T01:08:56.418Z,87.85
2022-12-17T01:09:06.225Z,87.75
2022-12-17T01:09:16.227Z,87.65
2022-12-17T01:09:26.230Z,87.65
2022-12-17T01:09:36.232Z,87.54
2022-12-17T01:09:46.232Z,87.54
2022-12-17T01:09:56.240Z,87.43
2022-12-17T01:10:06.238Z,87.43
2022-12-17T01:10:16.234Z,87.43
2022-12-17T01:10:26.233Z,87.43
2022-12-17T01:10:36.238Z,87.43
2022-12-17T01:10:46.254Z,87.43
2022-12-17T01:10:56.307Z,87.54
2022-12-17T01:11:06.238Z,87.75
2022-12-17T01:11:16.248Z,87.96
2022-12-17T01:11:26.239Z,88.18
2022-12-17T01:11:36.242Z,88.49
2022-12-17T01:11:46.243Z,88.71
2022-12-17T01:11:56.526Z,88.92
2022-12-17T01:12:06.245Z,89.13
2022-12-17T01:12:16.246Z,89.34
2022-12-17T01:12:26.249Z,89.45
2022-12-17T01:12:36.245Z,89.56
2022-12-17T01:12:46.247Z,89.66
2022-12-17T01:12:56.340Z,89.77
2022-12-17T01:13:06.250Z,89.87
2022-12-17T01:13:16.264Z,89.98
2022-12-17T01:13:26.253Z,90.09
2022-12-17T01:13:36.567Z,90.30
2022-12-17T01:13:46.257Z,90.41
2022-12-17T01:13:56.466Z,90.62
2022-12-17T01:14:06.255Z,90.72
2022-12-17T01:14:16.253Z,90.83
2022-12-17T01:14:26.262Z,91.05
2022-12-17T01:14:36.257Z,91.15
2022-12-17T01:14:46.261Z,91.15
2022-12-17T01:14:56.272Z,91.15
2022-12-17T01:15:06.262Z,91.15
2022-12-17T01:15:16.262Z,91.15
2022-12-17T01:15:26.272Z,91.25
2022-12-17T01:15:36.252Z,91.15
2022-12-17T01:15:46.272Z,91.15
2022-12-17T01:15:56.702Z,91.15
2022-12-17T01:16:06.343Z,91.15
2022-12-17T01:16:16.293Z,91.25
2022-12-17T01:16:26.372Z,91.25
2022-12-17T01:16:36.356Z,91.25
2022-12-17T01:16:46.376Z,91.25
2022-12-17T01:16:56.341Z,91.25
2022-12-17T01:17:06.278Z,91.25
2022-12-17T01:17:16.278Z,91.25
2022-12-17T01:17:26.282Z,91.25
2022-12-17T01:17:36.276Z,91.25
2022-12-17T01:17:46.277Z,91.25
2022-12-17T01:17:56.403Z,91.25
2022-12-17T01:18:06.273Z,91.25
2022-12-17T01:18:16.280Z,91.25
2022-12-17T01:18:26.277Z,91.25
2022-12-17T01:18:36.280Z,91.25
2022-12-17T01:18:46.282Z,91.25
2022-12-17T01:18:56.310Z,91.25
2022-12-17T01:19:06.282Z,91.36
2022-12-17T01:19:16.284Z,91.36
2022-12-17T01:19:26.284Z,91.36
2022-12-17T01:19:36.286Z,91.47
2022-12-17T01:19:46.311Z,91.47
2022-12-17T01:19:56.473Z,91.47
2022-12-17T01:20:06.286Z,91.53
2022-12-17T01:20:16.290Z,91.75
2022-12-17T01:20:26.292Z,91.85
2022-12-17T01:20:36.300Z,91.96
2022-12-17T01:20:46.294Z,92.07
2022-12-17T01:20:56.309Z,92.07
2022-12-17T01:21:06.292Z,92.17
2022-12-17T01:21:16.296Z,92.17
2022-12-17T01:21:26.296Z,92.17
2022-12-17T01:21:36.298Z,92.17
2022-12-17T01:21:46.296Z,92.07
2022-12-17T01:21:56.309Z,92.07
2022-12-17T01:22:06.298Z,92.07
2022-12-17T01:22:16.299Z,91.96
2022-12-17T01:22:26.303Z,91.85
2022-12-17T01:22:36.304Z,91.75
2022-12-17T01:22:46.301Z,91.64
2022-12-17T01:22:56.448Z,91.53
2022-12-17T01:23:06.313Z,91.32
2022-12-17T01:23:16.302Z,91.22
2022-12-17T01:23:26.303Z,91.00
2022-12-17T01:23:36.662Z,90.90
2022-12-17T01:23:46.309Z,90.69
2022-12-17T01:23:56.318Z,90.47
2022-12-17T01:24:06.307Z,90.26
2022-12-17T01:24:16.311Z,90.16
2022-12-17T01:24:26.317Z,89.94
2022-12-17T01:24:36.313Z,89.73
2022-12-17T01:24:46.312Z,89.62
2022-12-17T01:24:56.320Z,89.51
2022-12-17T01:25:06.315Z,89.41
2022-12-17T01:25:16.315Z,89.20
2022-12-17T01:25:26.316Z,89.09
2022-12-17T01:25:36.318Z,88.98
2022-12-17T01:25:46.323Z,88.88
2022-12-17T01:25:56.467Z,88.78
2022-12-17T01:26:06.326Z,88.67
2022-12-17T01:26:16.324Z,88.56
2022-12-17T01:26:26.322Z,88.45
2022-12-17T01:26:36.328Z,88.45
2022-12-17T01:26:46.323Z,88.45
2022-12-17T01:26:56.352Z,88.35
2022-12-17T01:27:06.327Z,88.35
2022-12-17T01:27:16.327Z,88.35
2022-12-17T01:27:26.326Z,88.35
2022-12-17T01:27:36.327Z,88.24
2022-12-17T01:27:46.349Z,88.24
2022-12-17T01:27:56.343Z,88.13
2022-12-17T01:28:06.328Z,88.13
2022-12-17T01:28:16.333Z,87.92
2022-12-17T01:28:26.334Z,87.82
2022-12-17T01:28:36.332Z,87.71
2022-12-17T01:28:46.336Z,87.60
2022-12-17T01:28:56.352Z,87.50
2022-12-17T01:29:06.342Z,87.50
2022-12-17T01:29:16.338Z,87.39
2022-12-17T01:29:26.335Z,87.39
2022-12-17T01:29:36.336Z,87.29
2022-12-17T01:29:46.341Z,87.29
2022-12-17T01:29:56.352Z,87.29
2022-12-17T01:30:06.342Z,87.22
2022-12-17T01:30:16.341Z,87.18
2022-12-17T01:30:26.341Z,87.22
2022-12-17T01:30:36.347Z,87.22
2022-12-17T01:30:46.349Z,87.22
2022-12-17T01:30:56.359Z,87.22
2022-12-17T01:31:06.394Z,87.22
2022-12-17T01:31:16.413Z,87.22
2022-12-17T01:31:30.193Z,87.22
2022-12-17T01:31:37.391Z,87.32
2022-12-17T01:31:46.421Z,87.32
2022-12-17T01:31:56.405Z,87.43
2022-12-17T01:32:06.372Z,87.54
2022-12-17T01:32:16.350Z,87.65
2022-12-17T01:32:26.356Z,87.65
2022-12-17T01:32:36.352Z,87.75
2022-12-17T01:32:46.350Z,87.85
2022-12-17T01:32:56.364Z,87.85
2022-12-17T01:33:06.352Z,87.96
2022-12-17T01:33:16.405Z,88.07
2022-12-17T01:33:26.357Z,88.07
2022-12-17T01:33:36.670Z,88.07
2022-12-17T01:33:46.359Z,88.07
2022-12-17T01:33:56.373Z,88.07
2022-12-17T01:34:06.362Z,88.07
2022-12-17T01:34:16.364Z,87.96
2022-12-17T01:34:26.363Z,87.85
2022-12-17T01:34:36.362Z,87.75
2022-12-17T01:34:46.371Z,87.65
2022-12-17T01:34:56.384Z,87.54
2022-12-17T01:35:06.369Z,87.32
2022-12-17T01:35:16.370Z,87.22
2022-12-17T01:35:26.370Z,87.12
2022-12-17T01:35:36.373Z,87.01
2022-12-17T01:35:46.372Z,87.01
2022-12-17T01:35:56.384Z,86.90
2022-12-17T01:36:06.375Z,86.90
2022-12-17T01:36:16.374Z,86.79
2022-12-17T01:36:26.374Z,86.79
2022-12-17T01:36:36.378Z,86.94
2022-12-17T01:36:46.376Z,86.94
2022-12-17T01:36:56.388Z,86.90
2022-12-17T01:37:06.378Z,86.90
2022-12-17T01:37:16.381Z,87.05
2022-12-17T01:37:26.376Z,87.05
2022-12-17T01:37:36.366Z,87.05
2022-12-17T01:37:46.378Z,87.05
2022-12-17T01:37:56.394Z,87.05
2022-12-17T01:38:06.385Z,87.15
2022-12-17T01:38:16.392Z,87.15
2022-12-17T01:38:26.383Z,87.26
2022-12-17T01:38:36.388Z,87.26
2022-12-17T01:38:46.387Z,87.37
2022-12-17T01:38:56.403Z,87.47
2022-12-17T01:39:06.404Z,87.47
2022-12-17T01:39:16.388Z,87.47
2022-12-17T01:39:26.387Z,87.47
2022-12-17T01:39:36.406Z,87.47
2022-12-17T01:39:46.390Z,87.47
2022-12-17T01:39:56.406Z,87.37
2022-12-17T01:40:06.390Z,87.37
2022-12-17T01:40:16.393Z,87.37
2022-12-17T01:40:26.395Z,87.47
2022-12-17T01:40:36.402Z,87.58
2022-12-17T01:40:46.399Z,87.68
2022-12-17T01:40:56.412Z,87.79
2022-12-17T01:41:06.398Z,87.79
2022-12-17T01:41:16.404Z,87.79
2022-12-17T01:41:26.398Z,87.79
2022-12-17T01:41:36.401Z,87.79
2022-12-17T01:41:46.409Z,87.79
2022-12-17T01:41:56.415Z,87.68
2022-12-17T01:42:06.413Z,87.58
2022-12-17T01:42:16.409Z,87.58
2022-12-17T01:42:26.411Z,87.47
2022-12-17T01:42:36.404Z,87.47
2022-12-17T01:42:46.407Z,87.47
2022-12-17T01:42:56.421Z,87.37
2022-12-17T01:43:06.411Z,87.37
2022-12-17T01:43:16.460Z,87.37
2022-12-17T01:43:26.409Z,87.37
2022-12-17T01:43:36.740Z,87.37
2022-12-17T01:43:46.412Z,87.37
2022-12-17T01:43:56.423Z,87.37
2022-12-17T01:44:06.415Z,87.37
2022-12-17T01:44:16.413Z,87.37
2022-12-17T01:44:26.413Z,87.26
2022-12-17T01:44:36.415Z,87.26
2022-12-17T01:44:46.418Z,87.26
2022-12-17T01:44:56.435Z,87.26
2022-12-17T01:45:06.423Z,87.15
2022-12-17T01:45:16.419Z,87.05
2022-12-17T01:45:26.490Z,86.83
2022-12-17T01:45:36.435Z,86.62
2022-12-17T01:45:46.522Z,86.41
2022-12-17T01:45:56.436Z,86.19
2022-12-17T01:46:06.537Z,86.13
2022-12-17T01:46:16.467Z,85.91
2022-12-17T01:46:26.420Z,85.71
2022-12-17T01:46:36.427Z,85.60
2022-12-17T01:46:46.422Z,85.38
2022-12-17T01:46:56.435Z,85.28
2022-12-17T01:47:06.427Z,85.17
2022-12-17T01:47:16.430Z,85.06
2022-12-17T01:47:26.455Z,85.06
2022-12-17T01:47:36.429Z,85.06
2022-12-17T01:47:46.433Z,85.17
2022-12-17T01:47:56.515Z,85.17
2022-12-17T01:48:06.436Z,85.28
2022-12-17T01:48:16.433Z,85.38
2022-12-17T01:48:26.433Z,85.49
2022-12-17T01:48:36.434Z,85.71
2022-12-17T01:48:46.438Z,85.91
2022-12-17T01:48:56.451Z,86.24
2022-12-17T01:49:06.441Z,86.66
2022-12-17T01:49:16.441Z,87.08
2022-12-17T01:49:26.438Z,87.51
2022-12-17T01:49:36.453Z,87.83
2022-12-17T01:49:46.455Z,88.15
2022-12-17T01:49:56.461Z,88.36
2022-12-17T01:50:06.444Z,88.57
2022-12-17T01:50:16.451Z,88.68
2022-12-17T01:50:26.449Z,88.89
2022-12-17T01:50:36.452Z,89.00
2022-12-17T01:50:46.450Z,89.06
2022-12-17T01:50:56.461Z,89.28
2022-12-17T01:51:06.452Z,89.39
2022-12-17T01:51:16.622Z,89.49
2022-12-17T01:51:26.453Z,89.49
2022-12-17T01:51:36.457Z,89.60
2022-12-17T01:51:46.460Z,89.70
2022-12-17T01:51:56.469Z,89.81
2022-12-17T01:52:06.457Z,89.81
2022-12-17T01:52:16.463Z,89.81
2022-12-17T01:52:26.459Z,89.81
2022-12-17T01:52:36.459Z,89.70
2022-12-17T01:52:46.464Z,89.60
2022-12-17T01:52:56.470Z,89.49
2022-12-17T01:53:06.459Z,89.34
2022-12-17T01:53:17.116Z,89.13
2022-12-17T01:53:26.471Z,88.92
2022-12-17T01:53:36.862Z,88.71
2022-12-17T01:53:46.470Z,88.49
2022-12-17T01:53:56.539Z,88.39
2022-12-17T01:54:06.471Z,88.28
2022-12-17T01:54:16.469Z,88.18
2022-12-17T01:54:26.473Z,88.07
2022-12-17T01:54:36.473Z,88.00
2022-12-17T01:54:46.476Z,88.00
2022-12-17T01:54:56.486Z,87.90
2022-12-17T01:55:06.484Z,87.90
2022-12-17T01:55:16.475Z,87.79
2022-12-17T01:55:26.476Z,87.79
2022-12-17T01:55:36.475Z,87.68
2022-12-17T01:55:47.120Z,87.68
2022-12-17T01:55:56.491Z,87.68
2022-12-17T01:56:06.478Z,87.58
2022-12-17T01:56:16.486Z,87.58
2022-12-17T01:56:26.484Z,87.58
2022-12-17T01:56:36.482Z,87.47
2022-12-17T01:56:46.483Z,87.47
2022-12-17T01:56:56.495Z,87.58
2022-12-17T01:57:06.484Z,87.58
2022-12-17T01:57:16.486Z,87.58
2022-12-17T01:57:26.488Z,87.47
2022-12-17T01:57:36.490Z,87.47
2022-12-17T01:57:46.489Z,87.47
2022-12-17T01:57:56.508Z,87.58
2022-12-17T01:58:06.491Z,87.58
2022-12-17T01:58:16.492Z,87.58
2022-12-17T01:58:26.493Z,87.68
2022-12-17T01:58:36.497Z,87.73
2022-12-17T01:58:46.494Z,87.73
2022-12-17T01:58:56.512Z,87.83
2022-12-17T01:59:06.500Z,87.83
2022-12-17T01:59:16.496Z,87.93
2022-12-17T01:59:26.498Z,87.93
2022-12-17T01:59:36.498Z,88.04
2022-12-17T01:59:46.497Z,88.04
2022-12-17T01:59:56.511Z,88.15
2022-12-17T02:00:06.507Z,88.15
2022-12-17T02:00:16.501Z,88.15
2022-12-17T02:00:26.502Z,88.15
2022-12-17T02:00:36.591Z,88.15
2022-12-17T02:00:46.563Z,88.15
2022-12-17T02:00:56.554Z,88.04
2022-12-17T02:01:06.563Z,88.04
2022-12-17T02:01:17.277Z,87.93
2022-12-17T02:01:26.647Z,87.93
2022-12-17T02:01:36.671Z,87.83
2022-12-17T02:01:46.707Z,87.73
2022-12-17T02:01:56.713Z,87.73
2022-12-17T02:02:06.691Z,87.62
2022-12-17T02:02:16.683Z,87.62
2022-12-17T02:02:26.618Z,87.62
2022-12-17T02:02:36.591Z,87.51
2022-12-17T02:02:46.587Z,87.51
2022-12-17T02:02:56.702Z,87.51
2022-12-17T02:03:06.558Z,87.51
2022-12-17T02:03:16.700Z,87.62
2022-12-17T02:03:26.569Z,87.62
2022-12-17T02:03:36.918Z,87.66
2022-12-17T02:03:46.520Z,87.66
2022-12-17T02:03:56.544Z,87.66
2022-12-17T02:04:06.524Z,87.66
2022-12-17T02:04:16.529Z,87.66
2022-12-17T02:04:26.524Z,87.76
2022-12-17T02:04:36.530Z,87.76
2022-12-17T02:04:46.530Z,87.76
2022-12-17T02:04:56.551Z,87.76
2022-12-17T02:05:06.534Z,87.87
2022-12-17T02:05:16.534Z,87.98
2022-12-17T02:05:26.534Z,88.19
2022-12-17T02:05:36.537Z,88.29
2022-12-17T02:05:46.538Z,88.40
2022-12-17T02:05:56.548Z,88.51
2022-12-17T02:06:06.536Z,88.61
2022-12-17T02:06:16.554Z,88.61
2022-12-17T02:06:26.539Z,88.61
2022-12-17T02:06:36.540Z,88.61
2022-12-17T02:06:46.537Z,88.61
2022-12-17T02:06:56.550Z,88.61
2022-12-17T02:07:06.573Z,88.51
2022-12-17T02:07:16.575Z,88.51
2022-12-17T02:07:26.582Z,88.51
2022-12-17T02:07:36.608Z,88.51
2022-12-17T02:07:46.597Z,88.51
2022-12-17T02:07:56.558Z,88.51
2022-12-17T02:08:06.544Z,88.51
2022-12-17T02:08:16.599Z,88.40
2022-12-17T02:08:26.548Z,88.40
2022-12-17T02:08:36.551Z,88.40
2022-12-17T02:08:46.548Z,88.40